Azamara Quest — 9HOM8 — position and weather

sailwx.info

Track history (hours):
 
Tides and Currents Weather Stations Pressure Air Temp Water Temp Dewpoint Dewpoint Depression Visibility Wind Speed Wind Dir Waves Ship Positions

Azamara Quest

Last reported at 2017-Mar-24 00:24 UTC. Time now 2017-Mar-24 10:05 UTC.
Position N 27°47' W 082°31'.

Length 181 m; draft 5.7 m.

Type: Passenger vessel. MMSI: 256216000.

Date/timePositionNaut miles runAvg speedWind from/ knotsBaromVisibWave heightAir tempDewpointWater temp
2017-Mar-24 00:24N 27°47' W 082°31'1011.3
2017-Mar-23 23:33N 27°55' W 082°27'1 1.1
2017-Mar-23 22:33N 27°57' W 082°27'0 0.0
2017-Mar-23 21:33N 27°57' W 082°27'0 0.0
2017-Mar-23 20:33N 27°57' W 082°27'0 0.0
2017-Mar-23 19:33N 27°57' W 082°27'0 0.0
2017-Mar-23 18:33N 27°57' W 082°27'0 0.0
2017-Mar-23 17:33N 27°57' W 082°27'0 0.0
2017-Mar-23 16:33N 27°57' W 082°27'1 1.0
2017-Mar-23 15:33N 27°56' W 082°27'11 9.3
2017-Mar-23 14:21N 27°45' W 082°32'190 5.0
2017-Mar-22 00:12N 25°31' W 080°01'1015.0
2017-Mar-21 23:31N 25°41' W 080°02'9 9.4
2017-Mar-21 22:33N 25°46' W 080°10'0 0.0
2017-Mar-21 21:32N 25°46' W 080°10'0 0.0
2017-Mar-21 20:29N 25°46' W 080°10'0 0.0
2017-Mar-21 19:23N 25°46' W 080°10'0 0.0
2017-Mar-21 18:23N 25°47' W 080°10'0 0.0
2017-Mar-21 17:29N 25°46' W 080°10'0 0.0
2017-Mar-21 16:26N 25°47' W 080°10'0 0.0
2017-Mar-21 15:29N 25°46' W 080°10'0 0.0
2017-Mar-21 14:20N 25°46' W 080°10'0 0.0
2017-Mar-21 13:29N 25°46' W 080°10'0 0.0
2017-Mar-21 12:23N 25°46' W 080°10'0 0.0
2017-Mar-21 11:26N 25°47' W 080°10'0 0.0
2017-Mar-21 10:32N 25°47' W 080°10'0 0.0
2017-Mar-21 09:33N 25°47' W 080°10'7 6.6
2017-Mar-21 08:33N 25°46' W 080°03'1616.0
2017-Mar-21 07:32N 25°41' W 079°45'  
2017-Mar-18 21:33N 18°33' W 064°33'  
Track history (hours):
 
Tides and Currents Weather Stations Pressure Air Temp Water Temp Dewpoint Dewpoint Depression Visibility Wind Speed Wind Dir Waves Ship Positions

Azamara Quest

Last reported at 2017-Mar-24 00:24 UTC. Time now 2017-Mar-24 10:05 UTC.
Position N 27°47' W 082°31'.

Length 181 m; draft 5.7 m.

Type: Passenger vessel. MMSI: 256216000.

Date/timePositionNaut miles runAvg speedWind from/ knotsBaromVisibWave heightAir tempDewpointWater temp
2017-Mar-24 00:24N 27°47' W 082°31'1011.3
2017-Mar-23 23:33N 27°55' W 082°27'1 1.1
2017-Mar-23 22:33N 27°57' W 082°27'0 0.0
2017-Mar-23 21:33N 27°57' W 082°27'0 0.0
2017-Mar-23 20:33N 27°57' W 082°27'0 0.0
2017-Mar-23 19:33N 27°57' W 082°27'0 0.0
2017-Mar-23 18:33N 27°57' W 082°27'0 0.0
2017-Mar-23 17:33N 27°57' W 082°27'0 0.0
2017-Mar-23 16:33N 27°57' W 082°27'1 1.0
2017-Mar-23 15:33N 27°56' W 082°27'11 9.3
2017-Mar-23 14:21N 27°45' W 082°32'190 5.0
2017-Mar-22 00:12N 25°31' W 080°01'1015.0
2017-Mar-21 23:31N 25°41' W 080°02'9 9.4
2017-Mar-21 22:33N 25°46' W 080°10'0 0.0
2017-Mar-21 21:32N 25°46' W 080°10'0 0.0
2017-Mar-21 20:29N 25°46' W 080°10'0 0.0
2017-Mar-21 19:23N 25°46' W 080°10'0 0.0
2017-Mar-21 18:23N 25°47' W 080°10'0 0.0
2017-Mar-21 17:29N 25°46' W 080°10'0 0.0
2017-Mar-21 16:26N 25°47' W 080°10'0 0.0
2017-Mar-21 15:29N 25°46' W 080°10'0 0.0
2017-Mar-21 14:20N 25°46' W 080°10'0 0.0
2017-Mar-21 13:29N 25°46' W 080°10'0 0.0
2017-Mar-21 12:23N 25°46' W 080°10'0 0.0
2017-Mar-21 11:26N 25°47' W 080°10'0 0.0
2017-Mar-21 10:32N 25°47' W 080°10'0 0.0
2017-Mar-21 09:33N 25°47' W 080°10'7 6.6
2017-Mar-21 08:33N 25°46' W 080°03'1616.0
2017-Mar-21 07:32N 25°41' W 079°45'  
2017-Mar-18 21:33N 18°33' W 064°33'  

Dump ship's entire track history